sensor_id;sensor_type;location;lat;lon;timestamp;temperature;humidity
1011;DHT22;494;48.744;10.106;2023-02-28T00:00:43;1.60;21.90
1011;DHT22;494;48.744;10.106;2023-02-28T00:03:13;1.60;21.60
1011;DHT22;494;48.744;10.106;2023-02-28T00:05:44;1.60;21.70
1011;DHT22;494;48.744;10.106;2023-02-28T00:08:14;1.60;21.80
1011;DHT22;494;48.744;10.106;2023-02-28T00:10:43;1.60;21.80
1011;DHT22;494;48.744;10.106;2023-02-28T00:13:12;1.50;22.20
1011;DHT22;494;48.744;10.106;2023-02-28T00:15:41;1.50;22.20
1011;DHT22;494;48.744;10.106;2023-02-28T00:18:12;1.70;22.00
1011;DHT22;494;48.744;10.106;2023-02-28T00:20:41;1.60;21.90
1011;DHT22;494;48.744;10.106;2023-02-28T00:23:11;1.50;22.00
1011;DHT22;494;48.744;10.106;2023-02-28T00:25:40;1.50;22.30
1011;DHT22;494;48.744;10.106;2023-02-28T00:28:12;1.50;22.30
1011;DHT22;494;48.744;10.106;2023-02-28T00:30:41;1.60;22.60
1011;DHT22;494;48.744;10.106;2023-02-28T00:33:10;1.50;22.50
1011;DHT22;494;48.744;10.106;2023-02-28T00:35:40;1.40;22.50
1011;DHT22;494;48.744;10.106;2023-02-28T00:38:09;1.40;22.90
1011;DHT22;494;48.744;10.106;2023-02-28T00:40:38;1.20;23.50
1011;DHT22;494;48.744;10.106;2023-02-28T00:43:06;1.20;23.00
1011;DHT22;494;48.744;10.106;2023-02-28T00:45:35;1.40;22.90
1011;DHT22;494;48.744;10.106;2023-02-28T00:48:04;1.30;23.00
1011;DHT22;494;48.744;10.106;2023-02-28T00:50:35;1.20;23.20
1011;DHT22;494;48.744;10.106;2023-02-28T00:53:03;1.30;23.40
1011;DHT22;494;48.744;10.106;2023-02-28T00:55:32;1.30;23.20
1011;DHT22;494;48.744;10.106;2023-02-28T00:58:01;1.30;23.60
1011;DHT22;494;48.744;10.106;2023-02-28T01:00:29;1.40;23.50
1011;DHT22;494;48.744;10.106;2023-02-28T01:02:58;1.20;23.70
1011;DHT22;494;48.744;10.106;2023-02-28T01:05:27;1.30;23.80
1011;DHT22;494;48.744;10.106;2023-02-28T01:07:57;1.40;23.60
1011;DHT22;494;48.744;10.106;2023-02-28T01:10:27;1.40;23.40
1011;DHT22;494;48.744;10.106;2023-02-28T01:12:58;1.50;24.20
1011;DHT22;494;48.744;10.106;2023-02-28T01:15:27;1.30;23.70
1011;DHT22;494;48.744;10.106;2023-02-28T01:17:56;1.30;24.00
1011;DHT22;494;48.744;10.106;2023-02-28T01:20:24;1.10;24.30
1011;DHT22;494;48.744;10.106;2023-02-28T01:22:53;1.20;24.40
1011;DHT22;494;48.744;10.106;2023-02-28T01:25:23;1.10;24.70
1011;DHT22;494;48.744;10.106;2023-02-28T01:27:52;0.90;25.10
1011;DHT22;494;48.744;10.106;2023-02-28T01:30:21;0.90;25.60
1011;DHT22;494;48.744;10.106;2023-02-28T01:32:49;0.90;25.60
1011;DHT22;494;48.744;10.106;2023-02-28T01:35:20;1.00;25.50
1011;DHT22;494;48.744;10.106;2023-02-28T01:37:49;1.30;25.60
1011;DHT22;494;48.744;10.106;2023-02-28T01:40:18;0.90;26.20
1011;DHT22;494;48.744;10.106;2023-02-28T01:42:48;1.10;26.00
1011;DHT22;494;48.744;10.106;2023-02-28T01:45:22;1.10;25.80
1011;DHT22;494;48.744;10.106;2023-02-28T01:47:58;1.00;25.80
1011;DHT22;494;48.744;10.106;2023-02-28T01:50:34;1.00;26.20
1011;DHT22;494;48.744;10.106;2023-02-28T01:53:12;1.00;26.40
1011;DHT22;494;48.744;10.106;2023-02-28T01:55:47;0.90;26.50
1011;DHT22;494;48.744;10.106;2023-02-28T01:58:21;1.00;26.30
1011;DHT22;494;48.744;10.106;2023-02-28T02:00:50;1.10;26.50
1011;DHT22;494;48.744;10.106;2023-02-28T02:03:20;1.10;26.40
1011;DHT22;494;48.744;10.106;2023-02-28T02:05:49;1.00;26.20
1011;DHT22;494;48.744;10.106;2023-02-28T02:08:21;1.10;26.40
1011;DHT22;494;48.744;10.106;2023-02-28T02:10:53;1.00;26.60
1011;DHT22;494;48.744;10.106;2023-02-28T02:13:44;0.90;27.50
1011;DHT22;494;48.744;10.106;2023-02-28T02:16:51;0.90;27.30
1011;DHT22;494;48.744;10.106;2023-02-28T02:20:00;1.10;27.30
1011;DHT22;494;48.744;10.106;2023-02-28T02:23:23;1.00;27.00
1011;DHT22;494;48.744;10.106;2023-02-28T02:26:10;1.20;27.00
1011;DHT22;494;48.744;10.106;2023-02-28T02:29:12;1.20;26.90
1011;DHT22;494;48.744;10.106;2023-02-28T02:35:27;1.50;27.50
1011;DHT22;494;48.744;10.106;2023-02-28T02:38:06;1.20;27.80
1011;DHT22;494;48.744;10.106;2023-02-28T02:40:44;1.10;28.30
1011;DHT22;494;48.744;10.106;2023-02-28T02:43:20;1.20;28.40
1011;DHT22;494;48.744;10.106;2023-02-28T02:45:55;1.20;28.80
1011;DHT22;494;48.744;10.106;2023-02-28T02:48:30;1.20;29.40
1011;DHT22;494;48.744;10.106;2023-02-28T02:51:06;1.10;29.80
1011;DHT22;494;48.744;10.106;2023-02-28T02:53:42;1.20;30.20
1011;DHT22;494;48.744;10.106;2023-02-28T02:56:20;1.30;30.50
1011;DHT22;494;48.744;10.106;2023-02-28T02:58:57;1.20;30.10
1011;DHT22;494;48.744;10.106;2023-02-28T03:01:31;1.20;30.40
1011;DHT22;494;48.744;10.106;2023-02-28T03:04:02;0.90;30.70
1011;DHT22;494;48.744;10.106;2023-02-28T03:06:36;0.90;31.30
1011;DHT22;494;48.744;10.106;2023-02-28T03:09:05;0.80;31.70
1011;DHT22;494;48.744;10.106;2023-02-28T03:11:35;0.90;31.80
1011;DHT22;494;48.744;10.106;2023-02-28T03:14:30;0.90;32.20
1011;DHT22;494;48.744;10.106;2023-02-28T03:17:31;1.00;31.20
1011;DHT22;494;48.744;10.106;2023-02-28T03:20:27;0.90;31.70
1011;DHT22;494;48.744;10.106;2023-02-28T03:23:17;1.00;31.40
1011;DHT22;494;48.744;10.106;2023-02-28T03:25:55;0.90;31.30
1011;DHT22;494;48.744;10.106;2023-02-28T03:28:32;1.10;31.00
1011;DHT22;494;48.744;10.106;2023-02-28T03:31:15;0.70;31.00
1011;DHT22;494;48.744;10.106;2023-02-28T03:33:51;0.60;31.70
1011;DHT22;494;48.744;10.106;2023-02-28T03:36:29;0.80;31.70
1011;DHT22;494;48.744;10.106;2023-02-28T03:39:04;0.70;31.30
1011;DHT22;494;48.744;10.106;2023-02-28T03:41:40;0.80;31.50
1011;DHT22;494;48.744;10.106;2023-02-28T03:44:17;0.90;31.40
1011;DHT22;494;48.744;10.106;2023-02-28T03:46:54;1.00;30.90
1011;DHT22;494;48.744;10.106;2023-02-28T03:49:32;1.00;30.30
1011;DHT22;494;48.744;10.106;2023-02-28T03:52:06;1.00;30.20
1011;DHT22;494;48.744;10.106;2023-02-28T03:54:43;1.00;30.00
1011;DHT22;494;48.744;10.106;2023-02-28T03:57:20;1.10;29.90
1011;DHT22;494;48.744;10.106;2023-02-28T03:59:57;1.20;29.60
1011;DHT22;494;48.744;10.106;2023-02-28T04:02:31;1.10;29.50
1011;DHT22;494;48.744;10.106;2023-02-28T04:05:00;1.20;29.60
1011;DHT22;494;48.744;10.106;2023-02-28T04:07:29;1.00;29.50
1011;DHT22;494;48.744;10.106;2023-02-28T04:10:00;0.90;29.50
1011;DHT22;494;48.744;10.106;2023-02-28T04:12:29;0.80;30.10
1011;DHT22;494;48.744;10.106;2023-02-28T04:14:57;0.90;30.20
1011;DHT22;494;48.744;10.106;2023-02-28T04:17:26;1.00;29.90
1011;DHT22;494;48.744;10.106;2023-02-28T04:19:55;0.90;29.60
1011;DHT22;494;48.744;10.106;2023-02-28T04:22:24;0.80;29.80
1011;DHT22;494;48.744;10.106;2023-02-28T04:24:54;0.80;29.90
1011;DHT22;494;48.744;10.106;2023-02-28T04:27:24;0.90;30.00
1011;DHT22;494;48.744;10.106;2023-02-28T04:29:52;0.80;29.90
1011;DHT22;494;48.744;10.106;2023-02-28T04:32:21;1.00;29.70
1011;DHT22;494;48.744;10.106;2023-02-28T04:34:50;0.80;29.90
1011;DHT22;494;48.744;10.106;2023-02-28T04:37:18;1.00;30.10
1011;DHT22;494;48.744;10.106;2023-02-28T04:39:48;0.80;29.80
1011;DHT22;494;48.744;10.106;2023-02-28T04:42:16;0.80;30.00
1011;DHT22;494;48.744;10.106;2023-02-28T04:44:46;0.90;30.00
1011;DHT22;494;48.744;10.106;2023-02-28T04:47:15;0.90;29.80
1011;DHT22;494;48.744;10.106;2023-02-28T04:49:44;1.00;29.70
1011;DHT22;494;48.744;10.106;2023-02-28T04:52:13;1.10;29.40
1011;DHT22;494;48.744;10.106;2023-02-28T04:54:41;1.00;29.70
1011;DHT22;494;48.744;10.106;2023-02-28T04:57:10;0.90;29.80
1011;DHT22;494;48.744;10.106;2023-02-28T04:59:38;0.90;30.00
1011;DHT22;494;48.744;10.106;2023-02-28T05:02:09;0.80;29.80
1011;DHT22;494;48.744;10.106;2023-02-28T05:04:37;1.00;30.20
1011;DHT22;494;48.744;10.106;2023-02-28T05:07:06;0.80;30.00
1011;DHT22;494;48.744;10.106;2023-02-28T05:09:35;0.90;30.20
1011;DHT22;494;48.744;10.106;2023-02-28T05:12:04;1.10;30.20
1011;DHT22;494;48.744;10.106;2023-02-28T05:14:33;1.10;29.90
1011;DHT22;494;48.744;10.106;2023-02-28T05:17:01;1.30;29.50
1011;DHT22;494;48.744;10.106;2023-02-28T05:19:31;1.10;28.90
1011;DHT22;494;48.744;10.106;2023-02-28T05:22:00;1.10;29.00
1011;DHT22;494;48.744;10.106;2023-02-28T05:24:29;1.10;29.00
1011;DHT22;494;48.744;10.106;2023-02-28T05:26:58;1.20;28.90
1011;DHT22;494;48.744;10.106;2023-02-28T05:29:27;1.20;28.70
1011;DHT22;494;48.744;10.106;2023-02-28T05:31:55;1.40;28.50
1011;DHT22;494;48.744;10.106;2023-02-28T05:34:24;1.20;28.70
1011;DHT22;494;48.744;10.106;2023-02-28T05:36:54;1.30;28.50
1011;DHT22;494;48.744;10.106;2023-02-28T05:39:23;1.30;28.50
1011;DHT22;494;48.744;10.106;2023-02-28T05:41:51;1.30;28.70
1011;DHT22;494;48.744;10.106;2023-02-28T05:44:20;1.20;28.50
1011;DHT22;494;48.744;10.106;2023-02-28T05:46:49;1.20;28.00
1011;DHT22;494;48.744;10.106;2023-02-28T05:49:17;1.20;28.20
1011;DHT22;494;48.744;10.106;2023-02-28T05:51:46;1.20;28.00
1011;DHT22;494;48.744;10.106;2023-02-28T05:54:16;1.20;28.10
1011;DHT22;494;48.744;10.106;2023-02-28T05:56:45;1.20;28.30
1011;DHT22;494;48.744;10.106;2023-02-28T05:59:14;1.50;28.20
1011;DHT22;494;48.744;10.106;2023-02-28T06:01:43;1.30;27.90
1011;DHT22;494;48.744;10.106;2023-02-28T06:04:16;1.30;27.00
1011;DHT22;494;48.744;10.106;2023-02-28T06:06:58;1.20;27.70
1011;DHT22;494;48.744;10.106;2023-02-28T06:09:28;1.20;27.90
1011;DHT22;494;48.744;10.106;2023-02-28T06:11:58;1.20;27.90
1011;DHT22;494;48.744;10.106;2023-02-28T06:14:27;1.10;27.90
1011;DHT22;494;48.744;10.106;2023-02-28T06:17:21;0.80;28.80
1011;DHT22;494;48.744;10.106;2023-02-28T06:20:37;1.10;29.00
1011;DHT22;494;48.744;10.106;2023-02-28T06:28:12;1.00;27.90
1011;DHT22;494;48.744;10.106;2023-02-28T06:31:41;1.10;27.80
1011;DHT22;494;48.744;10.106;2023-02-28T06:35:14;1.10;28.20
1011;DHT22;494;48.744;10.106;2023-02-28T06:43:02;1.00;28.80
1011;DHT22;494;48.744;10.106;2023-02-28T06:45:35;0.90;29.00
1011;DHT22;494;48.744;10.106;2023-02-28T06:48:06;0.70;28.90
1011;DHT22;494;48.744;10.106;2023-02-28T06:50:35;0.60;29.50
1011;DHT22;494;48.744;10.106;2023-02-28T06:53:03;0.70;29.70
1011;DHT22;494;48.744;10.106;2023-02-28T06:55:33;0.80;29.50
1011;DHT22;494;48.744;10.106;2023-02-28T06:58:01;0.80;29.00
1011;DHT22;494;48.744;10.106;2023-02-28T07:00:42;0.80;29.10
1011;DHT22;494;48.744;10.106;2023-02-28T07:03:12;0.90;28.90
1011;DHT22;494;48.744;10.106;2023-02-28T07:05:42;1.00;29.10
1011;DHT22;494;48.744;10.106;2023-02-28T07:08:11;1.00;28.90
1011;DHT22;494;48.744;10.106;2023-02-28T07:10:41;1.00;28.40
1011;DHT22;494;48.744;10.106;2023-02-28T07:13:10;0.90;28.70
1011;DHT22;494;48.744;10.106;2023-02-28T07:15:39;1.10;28.90
1011;DHT22;494;48.744;10.106;2023-02-28T07:18:11;0.90;29.60
1011;DHT22;494;48.744;10.106;2023-02-28T07:20:40;1.00;29.30
1011;DHT22;494;48.744;10.106;2023-02-28T07:23:09;0.90;29.00
1011;DHT22;494;48.744;10.106;2023-02-28T07:25:38;0.90;28.70
1011;DHT22;494;48.744;10.106;2023-02-28T07:28:07;1.00;28.70
1011;DHT22;494;48.744;10.106;2023-02-28T07:30:36;1.00;28.50
1011;DHT22;494;48.744;10.106;2023-02-28T07:33:05;1.00;28.50
1011;DHT22;494;48.744;10.106;2023-02-28T07:35:37;1.20;28.50
1011;DHT22;494;48.744;10.106;2023-02-28T07:38:06;1.40;27.80
1011;DHT22;494;48.744;10.106;2023-02-28T07:40:35;1.50;27.00
1011;DHT22;494;48.744;10.106;2023-02-28T07:43:04;1.60;26.80
1011;DHT22;494;48.744;10.106;2023-02-28T07:45:33;1.80;26.00
1011;DHT22;494;48.744;10.106;2023-02-28T07:48:02;1.80;25.50
1011;DHT22;494;48.744;10.106;2023-02-28T07:50:31;1.80;25.20
1011;DHT22;494;48.744;10.106;2023-02-28T07:53:02;1.80;25.70
1011;DHT22;494;48.744;10.106;2023-02-28T07:55:31;2.20;25.50
1011;DHT22;494;48.744;10.106;2023-02-28T07:58:00;2.40;25.30
1011;DHT22;494;48.744;10.106;2023-02-28T08:00:29;2.50;23.90
1011;DHT22;494;48.744;10.106;2023-02-28T08:02:59;2.50;22.80
1011;DHT22;494;48.744;10.106;2023-02-28T08:05:27;2.60;22.70
1011;DHT22;494;48.744;10.106;2023-02-28T08:07:57;2.50;23.00
1011;DHT22;494;48.744;10.106;2023-02-28T08:10:27;2.70;22.90
1011;DHT22;494;48.744;10.106;2023-02-28T08:12:56;2.70;21.30
1011;DHT22;494;48.744;10.106;2023-02-28T08:15:25;2.60;22.00
1011;DHT22;494;48.744;10.106;2023-02-28T08:17:54;2.60;22.00
1011;DHT22;494;48.744;10.106;2023-02-28T08:20:23;2.90;22.40
1011;DHT22;494;48.744;10.106;2023-02-28T08:22:51;2.80;21.40
1011;DHT22;494;48.744;10.106;2023-02-28T08:25:20;2.80;21.20
1011;DHT22;494;48.744;10.106;2023-02-28T08:27:52;2.60;21.00
1011;DHT22;494;48.744;10.106;2023-02-28T08:30:21;2.50;21.70
1011;DHT22;494;48.744;10.106;2023-02-28T08:32:50;2.80;22.50
1011;DHT22;494;48.744;10.106;2023-02-28T08:35:19;3.20;21.60
1011;DHT22;494;48.744;10.106;2023-02-28T08:37:48;3.40;20.00
1011;DHT22;494;48.744;10.106;2023-02-28T08:40:17;3.40;19.00
1011;DHT22;494;48.744;10.106;2023-02-28T08:42:46;3.50;19.10
1011;DHT22;494;48.744;10.106;2023-02-28T08:45:16;3.90;19.20
1011;DHT22;494;48.744;10.106;2023-02-28T08:47:46;4.10;17.90
1011;DHT22;494;48.744;10.106;2023-02-28T08:50:14;4.40;17.60
1011;DHT22;494;48.744;10.106;2023-02-28T08:52:43;4.20;17.40
1011;DHT22;494;48.744;10.106;2023-02-28T08:55:12;4.40;17.50
1011;DHT22;494;48.744;10.106;2023-02-28T08:57:41;4.60;17.00
1011;DHT22;494;48.744;10.106;2023-02-28T09:00:10;4.90;16.40
1011;DHT22;494;48.744;10.106;2023-02-28T09:02:42;4.90;15.70
1011;DHT22;494;48.744;10.106;2023-02-28T09:05:11;4.60;15.90
1011;DHT22;494;48.744;10.106;2023-02-28T09:07:39;4.30;16.30
1011;DHT22;494;48.744;10.106;2023-02-28T09:10:09;3.90;17.30
1011;DHT22;494;48.744;10.106;2023-02-28T09:12:38;3.90;17.90
1011;DHT22;494;48.744;10.106;2023-02-28T09:15:08;4.00;17.80
1011;DHT22;494;48.744;10.106;2023-02-28T09:17:37;3.70;18.10
1011;DHT22;494;48.744;10.106;2023-02-28T09:20:09;3.70;18.30
1011;DHT22;494;48.744;10.106;2023-02-28T09:22:38;3.70;18.30
1011;DHT22;494;48.744;10.106;2023-02-28T09:25:07;3.80;19.00
1011;DHT22;494;48.744;10.106;2023-02-28T09:27:36;3.60;18.40
1011;DHT22;494;48.744;10.106;2023-02-28T09:30:06;3.60;18.30
1011;DHT22;494;48.744;10.106;2023-02-28T09:32:35;3.70;18.50
1011;DHT22;494;48.744;10.106;2023-02-28T09:35:07;3.80;18.70
1011;DHT22;494;48.744;10.106;2023-02-28T09:37:40;3.90;18.80
1011;DHT22;494;48.744;10.106;2023-02-28T09:40:10;3.80;18.10
1011;DHT22;494;48.744;10.106;2023-02-28T09:42:40;3.60;18.80
1011;DHT22;494;48.744;10.106;2023-02-28T09:45:16;3.40;18.90
1011;DHT22;494;48.744;10.106;2023-02-28T09:47:51;3.30;19.00
1011;DHT22;494;48.744;10.106;2023-02-28T09:50:33;3.40;19.40
1011;DHT22;494;48.744;10.106;2023-02-28T09:53:10;3.60;19.30
1011;DHT22;494;48.744;10.106;2023-02-28T09:55:46;3.70;18.70
1011;DHT22;494;48.744;10.106;2023-02-28T09:58:22;4.00;18.60
1011;DHT22;494;48.744;10.106;2023-02-28T10:00:59;4.10;18.70
1011;DHT22;494;48.744;10.106;2023-02-28T10:03:36;4.20;18.10
1011;DHT22;494;48.744;10.106;2023-02-28T10:06:13;4.50;17.40
1011;DHT22;494;48.744;10.106;2023-02-28T10:08:52;4.70;17.70
1011;DHT22;494;48.744;10.106;2023-02-28T10:11:27;5.20;17.00
1011;DHT22;494;48.744;10.106;2023-02-28T10:14:02;5.90;15.00
1011;DHT22;494;48.744;10.106;2023-02-28T10:16:42;6.40;14.20
1011;DHT22;494;48.744;10.106;2023-02-28T10:19:22;7.20;12.30
1011;DHT22;494;48.744;10.106;2023-02-28T10:21:58;8.10;11.30
1011;DHT22;494;48.744;10.106;2023-02-28T10:24:32;9.40;9.60
1011;DHT22;494;48.744;10.106;2023-02-28T10:27:13;10.40;6.50
1011;DHT22;494;48.744;10.106;2023-02-28T10:29:44;11.30;5.30
1011;DHT22;494;48.744;10.106;2023-02-28T10:32:17;11.50;3.50
1011;DHT22;494;48.744;10.106;2023-02-28T10:34:51;11.00;5.30
1011;DHT22;494;48.744;10.106;2023-02-28T10:37:25;10.50;5.40
1011;DHT22;494;48.744;10.106;2023-02-28T10:39:55;11.00;5.30
1011;DHT22;494;48.744;10.106;2023-02-28T10:42:26;11.60;3.90
1011;DHT22;494;48.744;10.106;2023-02-28T10:45:20;12.00;3.90
1011;DHT22;494;48.744;10.106;2023-02-28T10:47:53;12.60;3.80
1011;DHT22;494;48.744;10.106;2023-02-28T10:50:35;13.10;2.10
1011;DHT22;494;48.744;10.106;2023-02-28T10:53:28;13.20;2.00
1011;DHT22;494;48.744;10.106;2023-02-28T10:56:21;13.60;1.30
1011;DHT22;494;48.744;10.106;2023-02-28T10:58:56;14.30;1.00
1011;DHT22;494;48.744;10.106;2023-02-28T11:01:35;14.80;1.00
1011;DHT22;494;48.744;10.106;2023-02-28T11:04:17;15.00;1.00
1011;DHT22;494;48.744;10.106;2023-02-28T11:06:56;14.80;1.00
1011;DHT22;494;48.744;10.106;2023-02-28T11:09:31;15.00;1.00
1011;DHT22;494;48.744;10.106;2023-02-28T11:12:02;15.40;1.00
1011;DHT22;494;48.744;10.106;2023-02-28T11:14:47;15.50;1.00
1011;DHT22;494;48.744;10.106;2023-02-28T11:17:21;15.40;1.00
1011;DHT22;494;48.744;10.106;2023-02-28T11:19:53;15.70;1.00
1011;DHT22;494;48.744;10.106;2023-02-28T11:22:27;15.80;1.00
1011;DHT22;494;48.744;10.106;2023-02-28T11:25:01;15.70;1.00
1011;DHT22;494;48.744;10.106;2023-02-28T11:27:46;15.30;1.00
1011;DHT22;494;48.744;10.106;2023-02-28T11:30:34;15.80;1.00
1011;DHT22;494;48.744;10.106;2023-02-28T11:33:31;16.10;1.00
1011;DHT22;494;48.744;10.106;2023-02-28T11:36:11;16.10;1.00
1011;DHT22;494;48.744;10.106;2023-02-28T11:38:42;15.90;1.00
1011;DHT22;494;48.744;10.106;2023-02-28T11:41:32;15.40;1.00
1011;DHT22;494;48.744;10.106;2023-02-28T11:44:21;15.40;1.00
1011;DHT22;494;48.744;10.106;2023-02-28T11:47:00;15.60;1.00
1011;DHT22;494;48.744;10.106;2023-02-28T11:49:43;16.40;1.00
1011;DHT22;494;48.744;10.106;2023-02-28T11:52:24;17.20;1.00
1011;DHT22;494;48.744;10.106;2023-02-28T11:55:08;18.00;1.00
1011;DHT22;494;48.744;10.106;2023-02-28T11:58:11;18.60;1.00
1011;DHT22;494;48.744;10.106;2023-02-28T12:00:57;19.00;1.00
1011;DHT22;494;48.744;10.106;2023-02-28T12:03:43;18.90;1.00
1011;DHT22;494;48.744;10.106;2023-02-28T12:06:22;18.80;1.00
1011;DHT22;494;48.744;10.106;2023-02-28T12:09:27;18.60;1.00
1011;DHT22;494;48.744;10.106;2023-02-28T12:12:17;18.70;1.00
1011;DHT22;494;48.744;10.106;2023-02-28T12:15:13;18.70;1.00
1011;DHT22;494;48.744;10.106;2023-02-28T12:18:01;18.50;1.00
1011;DHT22;494;48.744;10.106;2023-02-28T12:20:45;18.70;1.00
1011;DHT22;494;48.744;10.106;2023-02-28T12:23:33;18.60;1.00
1011;DHT22;494;48.744;10.106;2023-02-28T12:26:20;18.50;1.00
1011;DHT22;494;48.744;10.106;2023-02-28T12:29:00;18.30;1.00
1011;DHT22;494;48.744;10.106;2023-02-28T12:31:40;18.10;1.00
1011;DHT22;494;48.744;10.106;2023-02-28T12:34:18;17.70;1.00
1011;DHT22;494;48.744;10.106;2023-02-28T12:36:52;17.40;1.00
1011;DHT22;494;48.744;10.106;2023-02-28T12:39:26;17.50;1.00
1011;DHT22;494;48.744;10.106;2023-02-28T12:42:19;17.70;1.00
1011;DHT22;494;48.744;10.106;2023-02-28T12:44:56;17.90;1.00
1011;DHT22;494;48.744;10.106;2023-02-28T12:47:31;17.70;1.00
1011;DHT22;494;48.744;10.106;2023-02-28T12:50:04;17.80;1.00
1011;DHT22;494;48.744;10.106;2023-02-28T12:52:44;18.10;1.00
1011;DHT22;494;48.744;10.106;2023-02-28T12:55:27;17.80;1.00
1011;DHT22;494;48.744;10.106;2023-02-28T12:58:13;17.80;1.00
1011;DHT22;494;48.744;10.106;2023-02-28T13:01:04;17.30;1.00
1011;DHT22;494;48.744;10.106;2023-02-28T13:04:24;17.10;1.00
1011;DHT22;494;48.744;10.106;2023-02-28T13:07:19;16.40;1.00
1011;DHT22;494;48.744;10.106;2023-02-28T13:10:08;15.20;1.00
1011;DHT22;494;48.744;10.106;2023-02-28T13:12:48;14.60;1.00
1011;DHT22;494;48.744;10.106;2023-02-28T13:15:19;14.70;1.00
1011;DHT22;494;48.744;10.106;2023-02-28T13:17:53;14.50;1.00
1011;DHT22;494;48.744;10.106;2023-02-28T13:20:27;14.30;1.00
1011;DHT22;494;48.744;10.106;2023-02-28T13:23:01;14.40;1.00
1011;DHT22;494;48.744;10.106;2023-02-28T13:25:53;14.50;1.00
1011;DHT22;494;48.744;10.106;2023-02-28T13:32:18;14.00;1.00
1011;DHT22;494;48.744;10.106;2023-02-28T13:38:33;13.90;1.30
1011;DHT22;494;48.744;10.106;2023-02-28T13:41:40;14.00;1.10
1011;DHT22;494;48.744;10.106;2023-02-28T13:44:11;14.00;1.00
1011;DHT22;494;48.744;10.106;2023-02-28T13:47:21;13.90;1.20
1011;DHT22;494;48.744;10.106;2023-02-28T13:50:15;13.80;1.00
1011;DHT22;494;48.744;10.106;2023-02-28T13:56:20;13.80;1.00
1011;DHT22;494;48.744;10.106;2023-02-28T13:59:01;13.50;1.80
1011;DHT22;494;48.744;10.106;2023-02-28T14:01:48;13.60;1.50
1011;DHT22;494;48.744;10.106;2023-02-28T14:04:47;13.60;1.50
1011;DHT22;494;48.744;10.106;2023-02-28T14:07:27;13.40;1.90
1011;DHT22;494;48.744;10.106;2023-02-28T14:10:05;13.00;2.40
1011;DHT22;494;48.744;10.106;2023-02-28T14:12:54;12.60;2.80
1011;DHT22;494;48.744;10.106;2023-02-28T14:15:55;12.50;3.10
1011;DHT22;494;48.744;10.106;2023-02-28T14:18:31;12.40;3.10
1011;DHT22;494;48.744;10.106;2023-02-28T14:21:09;12.70;3.60
1011;DHT22;494;48.744;10.106;2023-02-28T14:24:03;12.90;3.00
1011;DHT22;494;48.744;10.106;2023-02-28T14:27:23;13.40;2.10
1011;DHT22;494;48.744;10.106;2023-02-28T14:33:40;14.20;1.30
1011;DHT22;494;48.744;10.106;2023-02-28T14:36:21;14.40;1.00
1011;DHT22;494;48.744;10.106;2023-02-28T14:38:55;14.60;1.00
1011;DHT22;494;48.744;10.106;2023-02-28T14:41:30;14.80;1.00
1011;DHT22;494;48.744;10.106;2023-02-28T14:44:14;15.20;1.00
1011;DHT22;494;48.744;10.106;2023-02-28T14:46:45;15.70;1.00
1011;DHT22;494;48.744;10.106;2023-02-28T14:49:19;15.90;1.00
1011;DHT22;494;48.744;10.106;2023-02-28T14:51:50;16.10;1.00
1011;DHT22;494;48.744;10.106;2023-02-28T14:54:30;16.10;1.00
1011;DHT22;494;48.744;10.106;2023-02-28T14:56:59;15.90;1.00
1011;DHT22;494;48.744;10.106;2023-02-28T14:59:31;15.50;1.00
1011;DHT22;494;48.744;10.106;2023-02-28T15:02:18;15.30;1.00
1011;DHT22;494;48.744;10.106;2023-02-28T15:04:56;15.20;1.00
1011;DHT22;494;48.744;10.106;2023-02-28T15:07:26;15.20;1.00
1011;DHT22;494;48.744;10.106;2023-02-28T15:10:11;14.90;1.00
1011;DHT22;494;48.744;10.106;2023-02-28T15:12:51;14.60;1.00
1011;DHT22;494;48.744;10.106;2023-02-28T15:15:27;14.60;1.00
1011;DHT22;494;48.744;10.106;2023-02-28T15:18:19;14.60;1.00
1011;DHT22;494;48.744;10.106;2023-02-28T15:20:52;14.00;1.00
1011;DHT22;494;48.744;10.106;2023-02-28T15:23:23;13.60;2.20
1011;DHT22;494;48.744;10.106;2023-02-28T15:25:53;13.70;1.70
1011;DHT22;494;48.744;10.106;2023-02-28T15:28:22;13.70;1.80
1011;DHT22;494;48.744;10.106;2023-02-28T15:30:56;13.50;2.90
1011;DHT22;494;48.744;10.106;2023-02-28T15:33:28;13.40;2.70
1011;DHT22;494;48.744;10.106;2023-02-28T15:36:13;13.10;2.30
1011;DHT22;494;48.744;10.106;2023-02-28T15:38:44;12.70;3.20
1011;DHT22;494;48.744;10.106;2023-02-28T15:41:29;12.20;4.00
1011;DHT22;494;48.744;10.106;2023-02-28T15:44:16;11.40;5.10
1011;DHT22;494;48.744;10.106;2023-02-28T15:46:58;11.30;5.40
1011;DHT22;494;48.744;10.106;2023-02-28T15:49:32;11.40;5.40
1011;DHT22;494;48.744;10.106;2023-02-28T15:52:14;11.30;5.30
1011;DHT22;494;48.744;10.106;2023-02-28T15:54:45;11.10;5.60
1011;DHT22;494;48.744;10.106;2023-02-28T15:57:17;10.60;6.30
1011;DHT22;494;48.744;10.106;2023-02-28T15:59:51;10.00;7.50
1011;DHT22;494;48.744;10.106;2023-02-28T16:02:30;9.60;8.00
1011;DHT22;494;48.744;10.106;2023-02-28T16:05:20;9.60;7.90
1011;DHT22;494;48.744;10.106;2023-02-28T16:07:56;9.50;8.60
1011;DHT22;494;48.744;10.106;2023-02-28T16:10:26;9.10;9.40
1011;DHT22;494;48.744;10.106;2023-02-28T16:12:57;8.70;9.80
1011;DHT22;494;48.744;10.106;2023-02-28T16:15:28;8.30;10.30
1011;DHT22;494;48.744;10.106;2023-02-28T16:18:00;7.90;11.20
1011;DHT22;494;48.744;10.106;2023-02-28T16:20:30;7.70;11.50
1011;DHT22;494;48.744;10.106;2023-02-28T16:22:58;7.60;11.90
1011;DHT22;494;48.744;10.106;2023-02-28T16:25:34;7.50;12.10
1011;DHT22;494;48.744;10.106;2023-02-28T16:28:09;7.50;12.40
1011;DHT22;494;48.744;10.106;2023-02-28T16:30:43;7.30;12.50
1011;DHT22;494;48.744;10.106;2023-02-28T16:33:13;7.10;12.90
1011;DHT22;494;48.744;10.106;2023-02-28T16:35:42;7.00;12.90
1011;DHT22;494;48.744;10.106;2023-02-28T16:38:11;6.80;13.30
1011;DHT22;494;48.744;10.106;2023-02-28T16:40:40;6.90;13.80
1011;DHT22;494;48.744;10.106;2023-02-28T16:43:15;6.70;13.90
1011;DHT22;494;48.744;10.106;2023-02-28T16:45:48;6.60;13.80
1011;DHT22;494;48.744;10.106;2023-02-28T16:48:19;6.50;14.10
1011;DHT22;494;48.744;10.106;2023-02-28T16:50:47;6.40;14.50
1011;DHT22;494;48.744;10.106;2023-02-28T16:53:16;6.20;14.50
1011;DHT22;494;48.744;10.106;2023-02-28T16:55:44;6.30;15.00
1011;DHT22;494;48.744;10.106;2023-02-28T16:58:15;6.00;15.00
1011;DHT22;494;48.744;10.106;2023-02-28T17:00:46;5.90;15.60
1011;DHT22;494;48.744;10.106;2023-02-28T17:03:23;5.80;15.70
1011;DHT22;494;48.744;10.106;2023-02-28T17:05:59;6.00;15.90
1011;DHT22;494;48.744;10.106;2023-02-28T17:08:28;5.80;15.80
1011;DHT22;494;48.744;10.106;2023-02-28T17:10:59;5.70;16.10
1011;DHT22;494;48.744;10.106;2023-02-28T17:13:29;5.60;16.40
1011;DHT22;494;48.744;10.106;2023-02-28T17:15:57;5.50;16.60
1011;DHT22;494;48.744;10.106;2023-02-28T17:18:28;5.40;16.60
1011;DHT22;494;48.744;10.106;2023-02-28T17:21:00;5.40;17.00
1011;DHT22;494;48.744;10.106;2023-02-28T17:23:29;5.30;16.80
1011;DHT22;494;48.744;10.106;2023-02-28T17:25:57;5.30;16.90
1011;DHT22;494;48.744;10.106;2023-02-28T17:28:26;5.10;17.00
1011;DHT22;494;48.744;10.106;2023-02-28T17:30:55;5.20;17.50
1011;DHT22;494;48.744;10.106;2023-02-28T17:33:23;5.00;17.70
1011;DHT22;494;48.744;10.106;2023-02-28T17:35:53;5.00;17.70
1011;DHT22;494;48.744;10.106;2023-02-28T17:38:22;5.00;17.60